sensor_id;sensor_type;location;lat;lon;timestamp;P1;durP1;ratioP1;P2;durP2;ratioP2
35592;SDS011;64447;52.140;5.602;2023-04-25T00:00:57;12.63;;;4.85;;
35592;SDS011;64447;52.140;5.602;2023-04-25T00:03:23;20.42;;;5.57;;
35592;SDS011;64447;52.140;5.602;2023-04-25T00:09:11;11.80;;;5.00;;
35592;SDS011;64447;52.140;5.602;2023-04-25T00:11:37;14.77;;;5.00;;
35592;SDS011;64447;52.140;5.602;2023-04-25T00:14:03;10.52;;;4.65;;
35592;SDS011;64447;52.140;5.602;2023-04-25T00:16:29;12.93;;;4.63;;
35592;SDS011;64447;52.140;5.602;2023-04-25T00:18:58;12.13;;;5.00;;
35592;SDS011;64447;52.140;5.602;2023-04-25T00:21:24;10.93;;;4.60;;
35592;SDS011;64447;52.140;5.602;2023-04-25T00:23:50;14.70;;;5.05;;
35592;SDS011;64447;52.140;5.602;2023-04-25T00:26:19;14.07;;;5.07;;
35592;SDS011;64447;52.140;5.602;2023-04-25T00:28:46;16.52;;;5.28;;
35592;SDS011;64447;52.140;5.602;2023-04-25T00:31:12;18.50;;;5.40;;
35592;SDS011;64447;52.140;5.602;2023-04-25T00:33:37;19.70;;;5.85;;
35592;SDS011;64447;52.140;5.602;2023-04-25T00:39:24;17.98;;;5.85;;
35592;SDS011;64447;52.140;5.602;2023-04-25T00:41:50;19.77;;;5.63;;
35592;SDS011;64447;52.140;5.602;2023-04-25T00:44:18;18.83;;;5.60;;
35592;SDS011;64447;52.140;5.602;2023-04-25T00:46:44;12.10;;;5.13;;
35592;SDS011;64447;52.140;5.602;2023-04-25T00:49:12;19.33;;;5.00;;
35592;SDS011;64447;52.140;5.602;2023-04-25T00:51:40;22.45;;;6.13;;
35592;SDS011;64447;52.140;5.602;2023-04-25T00:54:06;12.98;;;5.10;;
35592;SDS011;64447;52.140;5.602;2023-04-25T00:56:32;13.70;;;4.63;;
35592;SDS011;64447;52.140;5.602;2023-04-25T00:58:58;13.05;;;5.38;;
35592;SDS011;64447;52.140;5.602;2023-04-25T01:01:23;12.48;;;4.63;;
35592;SDS011;64447;52.140;5.602;2023-04-25T01:03:49;13.20;;;5.30;;
35592;SDS011;64447;52.140;5.602;2023-04-25T01:09:37;10.88;;;5.13;;
35592;SDS011;64447;52.140;5.602;2023-04-25T01:12:03;13.35;;;5.63;;
35592;SDS011;64447;52.140;5.602;2023-04-25T01:14:29;15.38;;;5.70;;
35592;SDS011;64447;52.140;5.602;2023-04-25T01:16:55;13.93;;;5.63;;
35592;SDS011;64447;52.140;5.602;2023-04-25T01:19:20;14.10;;;5.30;;
35592;SDS011;64447;52.140;5.602;2023-04-25T01:21:46;15.38;;;5.63;;
35592;SDS011;64447;52.140;5.602;2023-04-25T01:24:12;13.73;;;4.95;;
35592;SDS011;64447;52.140;5.602;2023-04-25T01:26:38;12.60;;;5.15;;
35592;SDS011;64447;52.140;5.602;2023-04-25T01:29:05;17.10;;;5.28;;
35592;SDS011;64447;52.140;5.602;2023-04-25T01:31:32;16.77;;;5.45;;
35592;SDS011;64447;52.140;5.602;2023-04-25T01:33:59;15.38;;;5.53;;
35592;SDS011;64447;52.140;5.602;2023-04-25T01:39:47;18.45;;;4.80;;
35592;SDS011;64447;52.140;5.602;2023-04-25T01:42:15;15.13;;;4.80;;
35592;SDS011;64447;52.140;5.602;2023-04-25T01:44:40;15.73;;;5.25;;
35592;SDS011;64447;52.140;5.602;2023-04-25T01:47:06;16.40;;;5.32;;
35592;SDS011;64447;52.140;5.602;2023-04-25T01:49:32;15.00;;;5.15;;
35592;SDS011;64447;52.140;5.602;2023-04-25T01:51:57;14.73;;;4.95;;
35592;SDS011;64447;52.140;5.602;2023-04-25T01:54:23;14.07;;;4.95;;
35592;SDS011;64447;52.140;5.602;2023-04-25T01:56:52;16.25;;;4.90;;
35592;SDS011;64447;52.140;5.602;2023-04-25T01:59:18;10.18;;;5.25;;
35592;SDS011;64447;52.140;5.602;2023-04-25T02:01:46;8.80;;;4.25;;
35592;SDS011;64447;52.140;5.602;2023-04-25T02:04:12;19.17;;;5.00;;
35592;SDS011;64447;52.140;5.602;2023-04-25T02:10:18;10.05;;;4.43;;
35592;SDS011;64447;52.140;5.602;2023-04-25T02:12:43;15.65;;;4.80;;
35592;SDS011;64447;52.140;5.602;2023-04-25T02:15:09;11.00;;;4.60;;
35592;SDS011;64447;52.140;5.602;2023-04-25T02:17:35;9.85;;;5.03;;
35592;SDS011;64447;52.140;5.602;2023-04-25T02:20:01;17.05;;;5.95;;
35592;SDS011;64447;52.140;5.602;2023-04-25T02:22:27;11.80;;;4.40;;
35592;SDS011;64447;52.140;5.602;2023-04-25T02:24:55;16.20;;;4.30;;
35592;SDS011;64447;52.140;5.602;2023-04-25T02:27:20;11.63;;;4.88;;
35592;SDS011;64447;52.140;5.602;2023-04-25T02:29:46;15.13;;;4.57;;
35592;SDS011;64447;52.140;5.602;2023-04-25T02:32:12;11.32;;;4.93;;
35592;SDS011;64447;52.140;5.602;2023-04-25T02:34:37;10.85;;;5.50;;
35592;SDS011;64447;52.140;5.602;2023-04-25T02:37:03;10.95;;;4.60;;
35592;SDS011;64447;52.140;5.602;2023-04-25T02:39:28;13.38;;;4.95;;
35592;SDS011;64447;52.140;5.602;2023-04-25T02:41:54;10.20;;;4.47;;
35592;SDS011;64447;52.140;5.602;2023-04-25T02:44:19;15.65;;;5.30;;
35592;SDS011;64447;52.140;5.602;2023-04-25T02:46:45;16.70;;;5.32;;
35592;SDS011;64447;52.140;5.602;2023-04-25T02:49:11;13.20;;;4.13;;
35592;SDS011;64447;52.140;5.602;2023-04-25T02:54:58;15.40;;;4.80;;
35592;SDS011;64447;52.140;5.602;2023-04-25T02:57:23;12.07;;;4.60;;
35592;SDS011;64447;52.140;5.602;2023-04-25T02:59:49;10.32;;;4.50;;
35592;SDS011;64447;52.140;5.602;2023-04-25T03:02:15;14.30;;;4.82;;
35592;SDS011;64447;52.140;5.602;2023-04-25T03:04:40;12.90;;;4.50;;
35592;SDS011;64447;52.140;5.602;2023-04-25T03:07:06;10.50;;;4.03;;
35592;SDS011;64447;52.140;5.602;2023-04-25T03:09:32;14.07;;;4.65;;
35592;SDS011;64447;52.140;5.602;2023-04-25T03:11:57;7.32;;;3.60;;
35592;SDS011;64447;52.140;5.602;2023-04-25T03:14:23;12.70;;;4.47;;
35592;SDS011;64447;52.140;5.602;2023-04-25T03:16:48;13.60;;;4.38;;
35592;SDS011;64447;52.140;5.602;2023-04-25T03:19:14;8.30;;;4.72;;
35592;SDS011;64447;52.140;5.602;2023-04-25T03:25:03;11.20;;;4.45;;
35592;SDS011;64447;52.140;5.602;2023-04-25T03:27:29;14.80;;;4.63;;
35592;SDS011;64447;52.140;5.602;2023-04-25T03:29:55;15.25;;;5.53;;
35592;SDS011;64447;52.140;5.602;2023-04-25T03:32:21;10.93;;;4.85;;
35592;SDS011;64447;52.140;5.602;2023-04-25T03:34:46;10.48;;;4.05;;
35592;SDS011;64447;52.140;5.602;2023-04-25T03:37:12;12.68;;;5.03;;
35592;SDS011;64447;52.140;5.602;2023-04-25T03:39:37;10.35;;;5.07;;
35592;SDS011;64447;52.140;5.602;2023-04-25T03:42:03;9.80;;;4.53;;
35592;SDS011;64447;52.140;5.602;2023-04-25T03:44:29;13.10;;;4.32;;
35592;SDS011;64447;52.140;5.602;2023-04-25T03:46:55;10.88;;;4.60;;
35592;SDS011;64447;52.140;5.602;2023-04-25T03:49:20;11.65;;;4.35;;
35592;SDS011;64447;52.140;5.602;2023-04-25T03:55:08;10.50;;;4.05;;
35592;SDS011;64447;52.140;5.602;2023-04-25T03:57:34;15.07;;;5.43;;
35592;SDS011;64447;52.140;5.602;2023-04-25T04:00:00;12.35;;;4.32;;
35592;SDS011;64447;52.140;5.602;2023-04-25T04:02:25;11.07;;;4.68;;
35592;SDS011;64447;52.140;5.602;2023-04-25T04:04:51;14.00;;;3.92;;
35592;SDS011;64447;52.140;5.602;2023-04-25T04:07:16;9.48;;;4.03;;
35592;SDS011;64447;52.140;5.602;2023-04-25T04:09:42;10.65;;;3.92;;
35592;SDS011;64447;52.140;5.602;2023-04-25T04:12:08;11.40;;;5.45;;
35592;SDS011;64447;52.140;5.602;2023-04-25T04:14:33;11.30;;;4.75;;
35592;SDS011;64447;52.140;5.602;2023-04-25T04:16:59;9.45;;;4.05;;
35592;SDS011;64447;52.140;5.602;2023-04-25T04:19:25;13.77;;;4.28;;
35592;SDS011;64447;52.140;5.602;2023-04-25T04:25:12;13.48;;;4.25;;
35592;SDS011;64447;52.140;5.602;2023-04-25T04:27:38;13.07;;;4.32;;
35592;SDS011;64447;52.140;5.602;2023-04-25T04:30:05;12.77;;;4.10;;
35592;SDS011;64447;52.140;5.602;2023-04-25T04:32:32;12.63;;;3.80;;
35592;SDS011;64447;52.140;5.602;2023-04-25T04:34:59;8.10;;;3.78;;
35592;SDS011;64447;52.140;5.602;2023-04-25T04:37:24;18.23;;;4.20;;
35592;SDS011;64447;52.140;5.602;2023-04-25T04:39:50;12.40;;;4.60;;
35592;SDS011;64447;52.140;5.602;2023-04-25T04:42:16;12.43;;;4.45;;
35592;SDS011;64447;52.140;5.602;2023-04-25T04:44:42;7.88;;;3.70;;
35592;SDS011;64447;52.140;5.602;2023-04-25T04:47:09;12.23;;;4.32;;
35592;SDS011;64447;52.140;5.602;2023-04-25T04:49:35;9.23;;;4.03;;
35592;SDS011;64447;52.140;5.602;2023-04-25T04:55:23;12.38;;;3.78;;
35592;SDS011;64447;52.140;5.602;2023-04-25T04:57:48;12.43;;;4.13;;
35592;SDS011;64447;52.140;5.602;2023-04-25T05:00:15;13.75;;;3.70;;
35592;SDS011;64447;52.140;5.602;2023-04-25T05:02:41;11.73;;;3.38;;
35592;SDS011;64447;52.140;5.602;2023-04-25T05:05:07;12.75;;;3.92;;
35592;SDS011;64447;52.140;5.602;2023-04-25T05:07:33;9.98;;;3.30;;
35592;SDS011;64447;52.140;5.602;2023-04-25T05:09:58;12.65;;;3.88;;
35592;SDS011;64447;52.140;5.602;2023-04-25T05:12:24;6.63;;;3.22;;
35592;SDS011;64447;52.140;5.602;2023-04-25T05:14:50;12.95;;;3.80;;
35592;SDS011;64447;52.140;5.602;2023-04-25T05:17:15;9.55;;;3.22;;
35592;SDS011;64447;52.140;5.602;2023-04-25T05:19:41;10.23;;;3.22;;
35592;SDS011;64447;52.140;5.602;2023-04-25T05:25:29;8.70;;;3.45;;
35592;SDS011;64447;52.140;5.602;2023-04-25T05:27:54;9.55;;;3.03;;
35592;SDS011;64447;52.140;5.602;2023-04-25T05:30:20;10.80;;;3.63;;
35592;SDS011;64447;52.140;5.602;2023-04-25T05:32:45;9.30;;;3.28;;
35592;SDS011;64447;52.140;5.602;2023-04-25T05:35:11;6.85;;;2.90;;
35592;SDS011;64447;52.140;5.602;2023-04-25T05:40:59;10.75;;;2.92;;
35592;SDS011;64447;52.140;5.602;2023-04-25T05:43:24;9.18;;;3.03;;
35592;SDS011;64447;52.140;5.602;2023-04-25T05:45:50;10.40;;;2.63;;
35592;SDS011;64447;52.140;5.602;2023-04-25T05:48:16;7.63;;;3.13;;
35592;SDS011;64447;52.140;5.602;2023-04-25T05:50:41;7.00;;;3.13;;
35592;SDS011;64447;52.140;5.602;2023-04-25T05:53:07;7.20;;;2.95;;
35592;SDS011;64447;52.140;5.602;2023-04-25T05:55:33;10.40;;;3.35;;
35592;SDS011;64447;52.140;5.602;2023-04-25T05:57:59;9.98;;;3.08;;
35592;SDS011;64447;52.140;5.602;2023-04-25T06:00:25;7.13;;;3.38;;
35592;SDS011;64447;52.140;5.602;2023-04-25T06:02:51;6.03;;;2.63;;
35592;SDS011;64447;52.140;5.602;2023-04-25T06:05:16;5.65;;;3.05;;
35592;SDS011;64447;52.140;5.602;2023-04-25T06:11:04;6.68;;;2.97;;
35592;SDS011;64447;52.140;5.602;2023-04-25T06:13:30;9.15;;;3.00;;
35592;SDS011;64447;52.140;5.602;2023-04-25T06:15:55;7.38;;;2.83;;
35592;SDS011;64447;52.140;5.602;2023-04-25T06:18:21;10.07;;;3.10;;
35592;SDS011;64447;52.140;5.602;2023-04-25T06:20:46;10.85;;;3.05;;
35592;SDS011;64447;52.140;5.602;2023-04-25T06:23:12;9.55;;;2.65;;
35592;SDS011;64447;52.140;5.602;2023-04-25T06:25:37;9.50;;;3.35;;
35592;SDS011;64447;52.140;5.602;2023-04-25T06:28:03;10.05;;;3.10;;
35592;SDS011;64447;52.140;5.602;2023-04-25T06:30:29;6.38;;;2.80;;
35592;SDS011;64447;52.140;5.602;2023-04-25T06:32:54;11.98;;;3.40;;
35592;SDS011;64447;52.140;5.602;2023-04-25T06:35:20;8.82;;;3.15;;
35592;SDS011;64447;52.140;5.602;2023-04-25T06:41:07;8.77;;;3.10;;
35592;SDS011;64447;52.140;5.602;2023-04-25T06:43:33;8.75;;;3.35;;
35592;SDS011;64447;52.140;5.602;2023-04-25T06:45:59;8.20;;;3.20;;
35592;SDS011;64447;52.140;5.602;2023-04-25T06:48:26;8.73;;;3.30;;
35592;SDS011;64447;52.140;5.602;2023-04-25T06:50:52;11.52;;;3.03;;
35592;SDS011;64447;52.140;5.602;2023-04-25T06:53:18;9.35;;;2.88;;
35592;SDS011;64447;52.140;5.602;2023-04-25T06:55:43;10.25;;;2.70;;
35592;SDS011;64447;52.140;5.602;2023-04-25T06:58:09;5.88;;;2.25;;
35592;SDS011;64447;52.140;5.602;2023-04-25T07:00:35;9.23;;;2.53;;
35592;SDS011;64447;52.140;5.602;2023-04-25T07:03:01;13.35;;;3.22;;
35592;SDS011;64447;52.140;5.602;2023-04-25T07:05:27;8.07;;;2.17;;
35592;SDS011;64447;52.140;5.602;2023-04-25T07:11:14;11.10;;;2.75;;
35592;SDS011;64447;52.140;5.602;2023-04-25T07:13:40;8.63;;;2.40;;
35592;SDS011;64447;52.140;5.602;2023-04-25T07:16:06;7.63;;;2.42;;
35592;SDS011;64447;52.140;5.602;2023-04-25T07:18:31;9.63;;;2.33;;
35592;SDS011;64447;52.140;5.602;2023-04-25T07:20:57;12.07;;;2.88;;
35592;SDS011;64447;52.140;5.602;2023-04-25T07:23:23;12.88;;;2.97;;
35592;SDS011;64447;52.140;5.602;2023-04-25T07:25:48;6.97;;;2.28;;
35592;SDS011;64447;52.140;5.602;2023-04-25T07:28:14;13.15;;;2.72;;
35592;SDS011;64447;52.140;5.602;2023-04-25T07:30:40;8.82;;;2.22;;
35592;SDS011;64447;52.140;5.602;2023-04-25T07:33:05;9.77;;;2.60;;
35592;SDS011;64447;52.140;5.602;2023-04-25T07:35:31;6.75;;;2.50;;
35592;SDS011;64447;52.140;5.602;2023-04-25T07:41:18;5.10;;;1.80;;
35592;SDS011;64447;52.140;5.602;2023-04-25T07:43:44;10.45;;;2.35;;
35592;SDS011;64447;52.140;5.602;2023-04-25T07:46:10;8.20;;;2.25;;
35592;SDS011;64447;52.140;5.602;2023-04-25T07:48:35;6.65;;;2.28;;
35592;SDS011;64447;52.140;5.602;2023-04-25T07:51:01;3.30;;;1.70;;
35592;SDS011;64447;52.140;5.602;2023-04-25T07:53:26;11.05;;;2.78;;
35592;SDS011;64447;52.140;5.602;2023-04-25T07:55:52;6.82;;;2.05;;
35592;SDS011;64447;52.140;5.602;2023-04-25T07:58:18;8.45;;;2.15;;
35592;SDS011;64447;52.140;5.602;2023-04-25T08:00:46;7.88;;;2.72;;
35592;SDS011;64447;52.140;5.602;2023-04-25T08:03:13;7.13;;;1.88;;
35592;SDS011;64447;52.140;5.602;2023-04-25T08:05:38;4.75;;;1.70;;
35592;SDS011;64447;52.140;5.602;2023-04-25T08:11:26;8.23;;;2.00;;
35592;SDS011;64447;52.140;5.602;2023-04-25T08:13:51;5.57;;;2.05;;
35592;SDS011;64447;52.140;5.602;2023-04-25T08:16:17;5.90;;;1.80;;
35592;SDS011;64447;52.140;5.602;2023-04-25T08:18:46;8.82;;;2.05;;
35592;SDS011;64447;52.140;5.602;2023-04-25T08:21:11;6.63;;;2.22;;
35592;SDS011;64447;52.140;5.602;2023-04-25T08:23:38;12.80;;;2.38;;
35592;SDS011;64447;52.140;5.602;2023-04-25T08:26:04;10.30;;;2.50;;
35592;SDS011;64447;52.140;5.602;2023-04-25T08:28:30;9.95;;;2.30;;
35592;SDS011;64447;52.140;5.602;2023-04-25T08:30:56;7.80;;;2.47;;
35592;SDS011;64447;52.140;5.602;2023-04-25T08:33:22;6.65;;;1.80;;
35592;SDS011;64447;52.140;5.602;2023-04-25T08:35:48;3.80;;;1.75;;
35592;SDS011;64447;52.140;5.602;2023-04-25T08:41:38;8.93;;;2.25;;
35592;SDS011;64447;52.140;5.602;2023-04-25T08:44:05;8.82;;;2.17;;
35592;SDS011;64447;52.140;5.602;2023-04-25T08:46:34;5.38;;;1.70;;
35592;SDS011;64447;52.140;5.602;2023-04-25T08:49:05;6.28;;;1.90;;
35592;SDS011;64447;52.140;5.602;2023-04-25T08:51:32;8.60;;;1.65;;
35592;SDS011;64447;52.140;5.602;2023-04-25T08:54:09;9.10;;;2.05;;
35592;SDS011;64447;52.140;5.602;2023-04-25T08:56:37;6.97;;;2.22;;
35592;SDS011;64447;52.140;5.602;2023-04-25T08:59:03;7.60;;;2.22;;
35592;SDS011;64447;52.140;5.602;2023-04-25T09:01:32;7.47;;;2.03;;
35592;SDS011;64447;52.140;5.602;2023-04-25T09:03:59;6.57;;;1.80;;
35592;SDS011;64447;52.140;5.602;2023-04-25T09:06:25;10.07;;;1.90;;
35592;SDS011;64447;52.140;5.602;2023-04-25T09:08:51;5.45;;;2.25;;
35592;SDS011;64447;52.140;5.602;2023-04-25T09:11:16;5.75;;;1.90;;
35592;SDS011;64447;52.140;5.602;2023-04-25T09:13:43;6.13;;;1.98;;
35592;SDS011;64447;52.140;5.602;2023-04-25T09:16:08;4.47;;;1.85;;
35592;SDS011;64447;52.140;5.602;2023-04-25T09:18:34;5.97;;;1.70;;
35592;SDS011;64447;52.140;5.602;2023-04-25T09:26:57;4.00;;;1.35;;
35592;SDS011;64447;52.140;5.602;2023-04-25T09:29:33;6.57;;;1.40;;
35592;SDS011;64447;52.140;5.602;2023-04-25T09:32:14;4.57;;;1.48;;
35592;SDS011;64447;52.140;5.602;2023-04-25T09:34:47;4.85;;;1.52;;
35592;SDS011;64447;52.140;5.602;2023-04-25T09:37:21;4.18;;;1.15;;
35592;SDS011;64447;52.140;5.602;2023-04-25T09:39:59;4.07;;;1.65;;
35592;SDS011;64447;52.140;5.602;2023-04-25T09:42:30;4.45;;;1.30;;
35592;SDS011;64447;52.140;5.602;2023-04-25T09:44:57;5.28;;;1.42;;
35592;SDS011;64447;52.140;5.602;2023-04-25T09:47:24;4.15;;;1.40;;
35592;SDS011;64447;52.140;5.602;2023-04-25T09:49:51;4.80;;;1.60;;
35592;SDS011;64447;52.140;5.602;2023-04-25T09:52:21;4.95;;;1.38;;
35592;SDS011;64447;52.140;5.602;2023-04-25T09:54:48;5.85;;;1.38;;
35592;SDS011;64447;52.140;5.602;2023-04-25T09:59:54;6.63;;;1.50;;
35592;SDS011;64447;52.140;5.602;2023-04-25T10:02:21;6.40;;;1.40;;
35592;SDS011;64447;52.140;5.602;2023-04-25T10:04:51;4.28;;;1.48;;
35592;SDS011;64447;52.140;5.602;2023-04-25T10:07:20;3.25;;;1.15;;
35592;SDS011;64447;52.140;5.602;2023-04-25T10:09:50;4.80;;;1.30;;
35592;SDS011;64447;52.140;5.602;2023-04-25T10:12:28;4.22;;;1.40;;
35592;SDS011;64447;52.140;5.602;2023-04-25T10:14:54;4.13;;;1.45;;
35592;SDS011;64447;52.140;5.602;2023-04-25T10:17:20;6.38;;;1.50;;
35592;SDS011;64447;52.140;5.602;2023-04-25T10:19:47;3.75;;;1.20;;
35592;SDS011;64447;52.140;5.602;2023-04-25T10:24:59;6.13;;;1.80;;
35592;SDS011;64447;52.140;5.602;2023-04-25T10:27:29;5.13;;;1.77;;
35592;SDS011;64447;52.140;5.602;2023-04-25T10:30:02;3.63;;;1.60;;
35592;SDS011;64447;52.140;5.602;2023-04-25T10:32:48;4.93;;;1.30;;
35592;SDS011;64447;52.140;5.602;2023-04-25T10:35:16;3.92;;;1.38;;
35592;SDS011;64447;52.140;5.602;2023-04-25T10:40:34;3.10;;;1.50;;
35592;SDS011;64447;52.140;5.602;2023-04-25T10:45:56;7.20;;;1.65;;
35592;SDS011;64447;52.140;5.602;2023-04-25T10:48:24;6.03;;;1.35;;
35592;SDS011;64447;52.140;5.602;2023-04-25T10:51:00;4.40;;;1.30;;
35592;SDS011;64447;52.140;5.602;2023-04-25T10:53:33;4.70;;;1.35;;
35592;SDS011;64447;52.140;5.602;2023-04-25T10:55:59;5.55;;;1.48;;
35592;SDS011;64447;52.140;5.602;2023-04-25T10:58:24;3.92;;;1.42;;
35592;SDS011;64447;52.140;5.602;2023-04-25T11:00:51;3.63;;;1.13;;
35592;SDS011;64447;52.140;5.602;2023-04-25T11:03:17;4.30;;;1.50;;
35592;SDS011;64447;52.140;5.602;2023-04-25T11:05:46;6.68;;;1.60;;
35592;SDS011;64447;52.140;5.602;2023-04-25T11:08:14;5.28;;;1.45;;
35592;SDS011;64447;52.140;5.602;2023-04-25T11:10:50;4.45;;;1.38;;
35592;SDS011;64447;52.140;5.602;2023-04-25T11:13:16;5.15;;;1.35;;
35592;SDS011;64447;52.140;5.602;2023-04-25T11:15:45;5.35;;;1.58;;
35592;SDS011;64447;52.140;5.602;2023-04-25T11:18:10;4.18;;;1.30;;
35592;SDS011;64447;52.140;5.602;2023-04-25T11:20:48;4.68;;;1.65;;
35592;SDS011;64447;52.140;5.602;2023-04-25T11:23:15;4.80;;;1.55;;
35592;SDS011;64447;52.140;5.602;2023-04-25T11:25:40;3.40;;;1.25;;
35592;SDS011;64447;52.140;5.602;2023-04-25T11:28:07;8.20;;;2.03;;
35592;SDS011;64447;52.140;5.602;2023-04-25T11:30:32;7.78;;;1.80;;
35592;SDS011;64447;52.140;5.602;2023-04-25T11:32:58;4.22;;;1.65;;
35592;SDS011;64447;52.140;5.602;2023-04-25T11:35:24;6.35;;;1.77;;
35592;SDS011;64447;52.140;5.602;2023-04-25T11:37:50;5.45;;;1.50;;
35592;SDS011;64447;52.140;5.602;2023-04-25T11:40:16;4.63;;;1.63;;
35592;SDS011;64447;52.140;5.602;2023-04-25T11:42:43;5.60;;;2.08;;
35592;SDS011;64447;52.140;5.602;2023-04-25T11:45:12;5.82;;;2.00;;
35592;SDS011;64447;52.140;5.602;2023-04-25T11:47:38;5.57;;;2.55;;
35592;SDS011;64447;52.140;5.602;2023-04-25T11:50:05;5.70;;;1.90;;
35592;SDS011;64447;52.140;5.602;2023-04-25T11:52:42;4.43;;;1.60;;
35592;SDS011;64447;52.140;5.602;2023-04-25T11:55:10;7.35;;;2.05;;
35592;SDS011;64447;52.140;5.602;2023-04-25T11:57:41;3.95;;;1.60;;
35592;SDS011;64447;52.140;5.602;2023-04-25T12:00:09;6.32;;;1.67;;
35592;SDS011;64447;52.140;5.602;2023-04-25T12:02:40;4.47;;;1.30;;
35592;SDS011;64447;52.140;5.602;2023-04-25T12:05:07;4.63;;;1.60;;
35592;SDS011;64447;52.140;5.602;2023-04-25T12:07:34;3.90;;;1.40;;
35592;SDS011;64447;52.140;5.602;2023-04-25T12:10:03;6.15;;;1.70;;
35592;SDS011;64447;52.140;5.602;2023-04-25T12:12:33;7.22;;;1.95;;
35592;SDS011;64447;52.140;5.602;2023-04-25T12:15:09;7.93;;;1.38;;
35592;SDS011;64447;52.140;5.602;2023-04-25T12:17:44;3.60;;;1.40;;
35592;SDS011;64447;52.140;5.602;2023-04-25T12:20:18;4.68;;;1.90;;
35592;SDS011;64447;52.140;5.602;2023-04-25T12:22:46;6.63;;;2.03;;
35592;SDS011;64447;52.140;5.602;2023-04-25T12:25:12;8.60;;;2.03;;
35592;SDS011;64447;52.140;5.602;2023-04-25T12:28:14;5.15;;;1.80;;
35592;SDS011;64447;52.140;5.602;2023-04-25T12:30:54;7.00;;;2.20;;
35592;SDS011;64447;52.140;5.602;2023-04-25T12:33:23;7.15;;;1.38;;
35592;SDS011;64447;52.140;5.602;2023-04-25T12:35:49;2.58;;;1.25;;
35592;SDS011;64447;52.140;5.602;2023-04-25T12:38:26;4.82;;;1.40;;
35592;SDS011;64447;52.140;5.602;2023-04-25T12:40:58;2.55;;;1.00;;
35592;SDS011;64447;52.140;5.602;2023-04-25T12:43:24;2.50;;;1.00;;
35592;SDS011;64447;52.140;5.602;2023-04-25T12:45:50;4.13;;;1.55;;
35592;SDS011;64447;52.140;5.602;2023-04-25T12:48:17;4.43;;;1.42;;
35592;SDS011;64447;52.140;5.602;2023-04-25T12:50:43;5.38;;;1.60;;
35592;SDS011;64447;52.140;5.602;2023-04-25T12:53:09;3.53;;;1.27;;
35592;SDS011;64447;52.140;5.602;2023-04-25T12:55:36;8.95;;;2.38;;
35592;SDS011;64447;52.140;5.602;2023-04-25T12:58:02;4.00;;;1.40;;
35592;SDS011;64447;52.140;5.602;2023-04-25T13:00:28;5.13;;;1.50;;
35592;SDS011;64447;52.140;5.602;2023-04-25T13:02:54;7.03;;;1.35;;
35592;SDS011;64447;52.140;5.602;2023-04-25T13:05:20;2.22;;;1.10;;
35592;SDS011;64447;52.140;5.602;2023-04-25T13:07:46;1.90;;;0.95;;
35592;SDS011;64447;52.140;5.602;2023-04-25T13:10:11;1.85;;;0.98;;
35592;SDS011;64447;52.140;5.602;2023-04-25T13:12:37;2.88;;;1.17;;
35592;SDS011;64447;52.140;5.602;2023-04-25T13:15:02;3.70;;;1.08;;
35592;SDS011;64447;52.140;5.602;2023-04-25T13:17:28;4.45;;;1.20;;
35592;SDS011;64447;52.140;5.602;2023-04-25T13:19:54;3.95;;;1.20;;
35592;SDS011;64447;52.140;5.602;2023-04-25T13:22:20;4.82;;;1.40;;
35592;SDS011;64447;52.140;5.602;2023-04-25T13:24:46;5.22;;;1.35;;
35592;SDS011;64447;52.140;5.602;2023-04-25T13:27:11;4.40;;;1.25;;
35592;SDS011;64447;52.140;5.602;2023-04-25T13:29:38;5.65;;;1.25;;
35592;SDS011;64447;52.140;5.602;2023-04-25T13:32:05;5.43;;;1.35;;
35592;SDS011;64447;52.140;5.602;2023-04-25T13:34:32;2.85;;;1.38;;
35592;SDS011;64447;52.140;5.602;2023-04-25T13:36:58;8.30;;;1.77;;
35592;SDS011;64447;52.140;5.602;2023-04-25T13:42:45;4.78;;;1.58;;
35592;SDS011;64447;52.140;5.602;2023-04-25T13:45:11;6.30;;;1.85;;
35592;SDS011;64447;52.140;5.602;2023-04-25T13:47:37;5.47;;;1.77;;
35592;SDS011;64447;52.140;5.602;2023-04-25T13:50:03;7.32;;;1.73;;
35592;SDS011;64447;52.140;5.602;2023-04-25T13:52:30;6.32;;;1.58;;
35592;SDS011;64447;52.140;5.602;2023-04-25T13:54:56;5.72;;;1.70;;
35592;SDS011;64447;52.140;5.602;2023-04-25T13:57:23;7.38;;;2.42;;
35592;SDS011;64447;52.140;5.602;2023-04-25T13:59:48;6.30;;;1.77;;
35592;SDS011;64447;52.140;5.602;2023-04-25T14:02:15;7.60;;;1.45;;
35592;SDS011;64447;52.140;5.602;2023-04-25T14:04:40;2.60;;;1.58;;
35592;SDS011;64447;52.140;5.602;2023-04-25T14:07:07;6.93;;;2.00;;
35592;SDS011;64447;52.140;5.602;2023-04-25T14:12:55;3.90;;;1.23;;
35592;SDS011;64447;52.140;5.602;2023-04-25T14:15:20;6.38;;;2.03;;
35592;SDS011;64447;52.140;5.602;2023-04-25T14:17:46;7.35;;;2.03;;
35592;SDS011;64447;52.140;5.602;2023-04-25T14:20:13;5.70;;;1.83;;
35592;SDS011;64447;52.140;5.602;2023-04-25T14:22:38;6.40;;;1.60;;
35592;SDS011;64447;52.140;5.602;2023-04-25T14:25:08;4.95;;;1.58;;
35592;SDS011;64447;52.140;5.602;2023-04-25T14:27:34;3.35;;;1.58;;
35592;SDS011;64447;52.140;5.602;2023-04-25T14:29:59;5.63;;;1.80;;
35592;SDS011;64447;52.140;5.602;2023-04-25T14:32:25;3.03;;;1.65;;
35592;SDS011;64447;52.140;5.602;2023-04-25T14:34:51;6.60;;;2.13;;
35592;SDS011;64447;52.140;5.602;2023-04-25T14:37:16;6.93;;;1.80;;
35592;SDS011;64447;52.140;5.602;2023-04-25T14:43:04;5.35;;;1.27;;
35592;SDS011;64447;52.140;5.602;2023-04-25T14:45:30;5.68;;;1.95;;
35592;SDS011;64447;52.140;5.602;2023-04-25T14:47:55;7.15;;;1.95;;
35592;SDS011;64447;52.140;5.602;2023-04-25T14:50:21;7.00;;;1.67;;
35592;SDS011;64447;52.140;5.602;2023-04-25T14:52:46;8.00;;;1.90;;
35592;SDS011;64447;52.140;5.602;2023-04-25T14:55:13;4.38;;;1.42;;
35592;SDS011;64447;52.140;5.602;2023-04-25T14:57:39;8.60;;;1.90;;
35592;SDS011;64447;52.140;5.602;2023-04-25T15:00:04;10.10;;;2.13;;
35592;SDS011;64447;52.140;5.602;2023-04-25T15:02:34;4.82;;;1.48;;
35592;SDS011;64447;52.140;5.602;2023-04-25T15:05:01;6.82;;;1.90;;
35592;SDS011;64447;52.140;5.602;2023-04-25T15:07:26;3.78;;;1.48;;
35592;SDS011;64447;52.140;5.602;2023-04-25T15:13:14;7.45;;;1.85;;
35592;SDS011;64447;52.140;5.602;2023-04-25T15:15:40;6.32;;;1.67;;
35592;SDS011;64447;52.140;5.602;2023-04-25T15:18:06;3.58;;;1.52;;
35592;SDS011;64447;52.140;5.602;2023-04-25T15:20:31;5.50;;;1.50;;
35592;SDS011;64447;52.140;5.602;2023-04-25T15:22:57;3.28;;;1.50;;
35592;SDS011;64447;52.140;5.602;2023-04-25T15:25:23;3.70;;;1.65;;
35592;SDS011;64447;52.140;5.602;2023-04-25T15:27:49;4.72;;;1.55;;
35592;SDS011;64447;52.140;5.602;2023-04-25T15:30:16;4.95;;;1.42;;
35592;SDS011;64447;52.140;5.602;2023-04-25T15:32:43;5.30;;;1.38;;
35592;SDS011;64447;52.140;5.602;2023-04-25T15:35:09;6.22;;;1.60;;
35592;SDS011;64447;52.140;5.602;2023-04-25T15:37:36;4.82;;;1.70;;
35592;SDS011;64447;52.140;5.602;2023-04-25T15:43:24;2.25;;;1.60;;
35592;SDS011;64447;52.140;5.602;2023-04-25T15:45:50;5.97;;;1.48;;
35592;SDS011;64447;52.140;5.602;2023-04-25T15:48:16;6.18;;;1.60;;
35592;SDS011;64447;52.140;5.602;2023-04-25T15:50:41;5.43;;;1.98;;
35592;SDS011;64447;52.140;5.602;2023-04-25T15:53:07;9.52;;;1.88;;
35592;SDS011;64447;52.140;5.602;2023-04-25T15:55:33;4.13;;;1.55;;
35592;SDS011;64447;52.140;5.602;2023-04-25T15:57:59;8.57;;;2.03;;
35592;SDS011;64447;52.140;5.602;2023-04-25T16:00:25;5.63;;;1.67;;
35592;SDS011;64447;52.140;5.602;2023-04-25T16:02:50;4.18;;;1.70;;
35592;SDS011;64447;52.140;5.602;2023-04-25T16:05:16;5.85;;;1.63;;
35592;SDS011;64447;52.140;5.602;2023-04-25T16:07:43;5.05;;;1.60;;
35592;SDS011;64447;52.140;5.602;2023-04-25T16:13:30;6.32;;;1.80;;
35592;SDS011;64447;52.140;5.602;2023-04-25T16:15:57;3.47;;;1.70;;
35592;SDS011;64447;52.140;5.602;2023-04-25T16:18:23;4.25;;;1.70;;